Time;durP1;ratioP1;P1;durP2;ratioP2;P2;SDS_P1;SDS_P2;PMS_P1;PMS_P2;Temp;Humidity;BMP_temperature;BMP_pressure;BME280_temperature;BME280_humidity;BME280_pressure;Samples;Min_cycle;Max_cycle;Signal;HPM_P1;HPM_P2
2022/09/25 00:00:24;;;;;;;6.43;1.60;;;11.10;99.90;;;;;;3058356;19;20011;-78
2022/09/25 00:01:29;;;;;;;6.32;1.50;;;11.10;99.90;;;;;;3057994;19;20007;-77
2022/09/25 00:02:30;;;;;;;6.88;1.88;;;11.00;99.90;;;;;;3059448;19;20464;-77
2022/09/25 00:03:34;;;;;;;7.68;1.55;;;11.20;99.90;;;;;;3057020;19;20024;-77
2022/09/25 00:04:35;;;;;;;8.75;1.63;;;11.20;99.90;;;;;;3057926;19;20025;-78
2022/09/25 00:05:40;;;;;;;7.32;1.70;;;11.50;99.90;;;;;;3058616;19;20015;-77
2022/09/25 00:06:46;;;;;;;7.97;1.52;;;11.20;99.90;;;;;;3055788;19;20014;-77
2022/09/25 00:07:48;;;;;;;6.93;1.75;;;11.30;99.90;;;;;;3058273;19;20018;-78
2022/09/25 00:08:53;;;;;;;10.50;1.92;;;11.10;99.90;;;;;;3058116;19;20030;-78
2022/09/25 00:09:57;;;;;;;6.43;1.45;;;11.10;99.90;;;;;;3058050;19;20098;-78
2022/09/25 00:11:01;;;;;;;9.75;1.65;;;10.80;99.90;;;;;;3058116;19;20022;-77
2022/09/25 00:12:02;;;;;;;5.60;1.70;;;11.50;99.90;;;;;;3057988;19;20014;-78
2022/09/25 00:13:06;;;;;;;8.90;1.60;;;11.00;99.90;;;;;;3058431;19;20810;-77
2022/09/25 00:14:11;;;;;;;6.05;1.42;;;11.10;99.90;;;;;;3057841;19;20021;-77
2022/09/25 00:15:12;;;;;;;5.90;1.70;;;11.10;99.90;;;;;;3059533;19;20488;-78
2022/09/25 00:16:18;;;;;;;10.48;2.30;;;10.80;99.90;;;;;;3057848;19;20028;-77
2022/09/25 00:17:20;;;;;;;11.02;1.63;;;11.00;99.90;;;;;;3058294;19;20017;-78
2022/09/25 00:19:54;;;;;;;7.25;1.50;;;11.20;99.90;;;;;;3058410;19;20011;-77
2022/09/25 00:20:59;;;;;;;6.25;1.80;;;11.10;99.90;;;;;;3057594;19;20021;-78
2022/09/25 00:22:01;;;;;;;8.65;1.65;;;10.90;99.90;;;;;;3057741;19;20352;-78
2022/09/25 00:23:05;;;;;;;8.15;1.75;;;;;;;;;;3058157;19;20046;-78
2022/09/25 00:24:09;;;;;;;9.80;1.52;;;11.00;99.90;;;;;;3059455;19;20014;-77
2022/09/25 00:25:17;;;;;;;8.25;1.50;;;11.00;99.90;;;;;;3057861;19;20007;-76
2022/09/25 00:26:19;;;;;;;8.90;1.60;;;11.00;99.90;;;;;;3058021;19;20018;-77
2022/09/25 00:27:23;;;;;;;8.18;2.00;;;11.30;99.90;;;;;;3058878;19;20347;-77
2022/09/25 00:28:24;;;;;;;13.63;1.50;;;11.10;99.90;;;;;;3056639;19;20027;-77
2022/09/25 00:29:29;;;;;;;9.00;1.67;;;11.00;99.90;;;;;;3059026;19;20083;-77
2022/09/25 00:30:31;;;;;;;8.23;1.83;;;10.70;99.90;;;;;;3059552;19;20095;-77
2022/09/25 00:31:35;;;;;;;11.38;2.20;;;10.80;99.90;;;;;;3057412;19;20014;-78
2022/09/25 00:32:36;;;;;;;6.75;1.40;;;11.00;99.90;;;;;;3057925;19;20018;-78
2022/09/25 00:33:40;;;;;;;11.80;1.80;;;10.90;99.90;;;;;;3059360;19;20010;-77
2022/09/25 00:34:44;;;;;;;8.45;1.58;;;11.10;99.90;;;;;;3056068;19;20015;-77
2022/09/25 00:35:45;;;;;;;7.25;1.73;;;10.80;99.90;;;;;;3056372;19;20018;-77
2022/09/25 00:36:49;;;;;;;7.03;1.70;;;10.80;99.90;;;;;;3057330;19;20675;-77
2022/09/25 00:37:51;;;;;;;7.93;1.60;;;10.80;99.90;;;;;;3057234;19;20038;-77
2022/09/25 00:38:54;;;;;;;6.63;1.58;;;10.90;99.90;;;;;;3056930;19;20009;-77
2022/09/25 00:39:56;;;;;;;8.88;1.88;;;10.80;99.90;;;;;;3056088;19;20026;-77
2022/09/25 00:41:03;;;;;;;6.95;1.80;;;10.70;99.90;;;;;;3057209;19;20015;-77
2022/09/25 00:42:04;;;;;;;10.45;2.15;;;;;;;;;;3057597;19;20015;-77
2022/09/25 00:43:14;;;;;;;8.45;1.95;;;10.50;99.90;;;;;;3056282;19;20021;-77
2022/09/25 00:44:58;;;;;;;11.52;1.90;;;10.80;99.90;;;;;;3056945;19;20544;-75
2022/09/25 00:45:59;;;;;;;;;;;11.00;99.90;;;;;;3057334;19;20018;-77
2022/09/25 00:47:03;;;;;;;6.45;1.88;;;10.60;99.90;;;;;;3057575;19;20340;-75
2022/09/25 00:48:11;;;;;;;9.00;2.10;;;10.60;99.90;;;;;;3057279;19;20018;-75
2022/09/25 00:49:15;;;;;;;8.10;1.55;;;10.70;99.90;;;;;;3058448;19;20014;-75
2022/09/25 00:50:28;;;;;;;8.82;1.67;;;10.40;99.90;;;;;;3059304;19;20010;-75
2022/09/25 00:51:37;;;;;;;8.27;1.90;;;10.50;99.90;;;;;;3060643;19;20018;-75
2022/09/25 00:52:38;;;;;;;11.60;2.35;;;10.50;99.90;;;;;;3061006;19;20026;-75
2022/09/25 00:53:43;;;;;;;8.07;1.60;;;10.40;99.90;;;;;;3060588;19;20491;-75
2022/09/25 00:54:46;;;;;;;7.68;1.73;;;10.50;99.90;;;;;;3060788;19;20018;-75
2022/09/25 00:55:51;;;;;;;8.32;2.08;;;10.60;99.90;;;;;;3060479;19;20514;-79
2022/09/25 00:56:57;;;;;;;9.23;1.95;;;10.40;99.90;;;;;;3060987;19;19998;-76
2022/09/25 00:58:04;;;;;;;6.18;1.70;;;10.70;99.90;;;;;;3060446;19;20043;-78
2022/09/25 00:59:09;;;;;;;10.02;2.40;;;10.40;99.90;;;;;;3059653;19;20007;-78
2022/09/25 01:00:15;;;;;;;5.85;1.70;;;10.30;99.90;;;;;;3060426;19;20478;-77
2022/09/25 01:01:16;;;;;;;5.93;1.50;;;10.30;99.90;;;;;;3061740;19;20459;-78
2022/09/25 01:02:26;;;;;;;8.15;1.60;;;10.30;99.90;;;;;;3060742;19;20022;-78
2022/09/25 01:03:30;;;;;;;9.60;1.60;;;10.20;99.90;;;;;;3060672;19;20010;-77
2022/09/25 01:04:36;;;;;;;6.63;1.58;;;10.50;99.90;;;;;;3060041;19;20027;-79
2022/09/25 01:05:44;;;;;;;7.60;1.60;;;10.30;99.90;;;;;;3060852;19;20035;-78
2022/09/25 01:06:45;;;;;;;11.90;2.05;;;10.30;99.90;;;;;;3060689;19;20018;-78
2022/09/25 01:07:51;;;;;;;7.38;1.60;;;10.30;99.90;;;;;;3060795;19;20396;-78
2022/09/25 01:08:54;;;;;;;8.52;1.70;;;10.30;99.90;;;;;;3060700;19;20353;-76
2022/09/25 01:10:01;;;;;;;6.18;1.77;;;10.10;99.90;;;;;;3060000;19;20022;-75
2022/09/25 01:11:03;;;;;;;7.40;1.60;;;10.30;99.90;;;;;;3060718;19;20027;-76
2022/09/25 01:12:10;;;;;;;6.18;1.63;;;10.20;99.90;;;;;;3060571;19;19998;-76
2022/09/25 01:13:13;;;;;;;9.40;1.63;;;10.50;99.90;;;;;;3060467;19;20371;-76
2022/09/25 01:14:17;;;;;;;10.07;2.10;;;10.30;99.90;;;;;;3060246;19;20482;-77
2022/09/25 01:15:22;;;;;;;9.18;1.90;;;10.00;99.90;;;;;;3061222;19;20505;-76
2022/09/25 01:16:33;;;;;;;9.02;1.55;;;10.20;99.90;;;;;;3060340;19;20014;-76
2022/09/25 01:17:42;;;;;;;9.65;1.70;;;10.30;99.90;;;;;;3060599;19;20013;-75
2022/09/25 01:18:59;;;;;;;7.88;1.70;;;10.00;99.90;;;;;;3059937;19;20015;-78
2022/09/25 01:20:21;;;;;;;9.43;1.63;;;10.20;99.90;;;;;;3060681;19;19999;-77
2022/09/25 01:21:34;;;;;;;8.68;1.50;;;10.60;99.90;;;;;;3060336;19;20053;-78
2022/09/25 01:22:48;;;;;;;8.32;1.60;;;10.10;99.90;;;;;;3061702;19;20031;-77
2022/09/25 01:24:33;;;;;;;8.70;1.42;;;10.20;99.90;;;;;;3061255;19;20022;-77
2022/09/25 01:25:48;;;;;;;6.55;1.80;;;10.00;99.90;;;;;;3059584;19;20010;-76
2022/09/25 01:27:23;;;;;;;9.10;1.67;;;10.00;99.90;;;;;;3060235;19;20014;-75
2022/09/25 01:28:53;;;;;;;4.65;1.50;;;9.90;99.90;;;;;;3059921;19;20021;-75
2022/09/25 01:30:07;;;;;;;7.18;1.70;;;10.40;99.90;;;;;;3060271;19;20006;-75
2022/09/25 01:31:17;;;;;;;5.60;1.52;;;10.20;99.90;;;;;;3060030;19;20470;-76
2022/09/25 01:32:25;;;;;;;8.35;2.17;;;10.00;99.90;;;;;;3059836;19;20019;-76
2022/09/25 01:33:33;;;;;;;7.45;2.00;;;10.00;99.90;;;;;;3059906;19;20011;-76
2022/09/25 01:34:45;;;;;;;10.10;2.00;;;10.00;99.90;;;;;;3058224;19;20040;-76
2022/09/25 01:35:51;;;;;;;6.63;1.98;;;9.90;99.90;;;;;;3060161;19;20010;-77
2022/09/25 01:37:01;;;;;;;7.45;2.22;;;9.90;99.90;;;;;;3060171;19;20014;-77
2022/09/25 01:38:14;;;;;;;12.73;2.75;;;9.90;99.90;;;;;;3059428;19;20022;-76
2022/09/25 01:39:24;;;;;;;8.48;1.77;;;10.00;99.90;;;;;;3059082;19;20501;-77
2022/09/25 01:40:32;;;;;;;9.50;1.83;;;9.80;99.90;;;;;;3062008;19;20014;-77
2022/09/25 01:41:45;;;;;;;7.57;2.30;;;10.20;99.90;;;;;;3060070;19;20364;-77
2022/09/25 01:42:50;;;;;;;6.07;2.25;;;9.90;99.90;;;;;;3060271;19;20017;-77
2022/09/25 01:44:01;;;;;;;6.18;1.83;;;9.90;99.90;;;;;;3059656;19;20018;-77
2022/09/25 01:45:06;;;;;;;10.60;1.92;;;9.90;99.90;;;;;;3060327;19;20029;-76
2022/09/25 01:46:17;;;;;;;8.07;1.63;;;9.90;99.90;;;;;;3059695;19;20018;-76
2022/09/25 01:47:24;;;;;;;9.52;2.08;;;9.90;99.90;;;;;;3059994;19;19998;-77
2022/09/25 01:48:29;;;;;;;10.50;1.70;;;10.00;99.90;;;;;;3060380;19;20028;-76
2022/09/25 01:49:35;;;;;;;7.22;1.70;;;9.90;99.90;;;;;;3059335;19;19998;-76
2022/09/25 01:50:46;;;;;;;7.15;1.60;;;10.00;99.90;;;;;;3059977;19;20038;-77
2022/09/25 01:51:50;;;;;;;9.73;1.70;;;9.80;99.90;;;;;;3060034;19;20482;-77
2022/09/25 01:52:58;;;;;;;6.78;1.48;;;9.60;99.90;;;;;;3059837;19;20267;-78
2022/09/25 01:54:04;;;;;;;8.27;1.90;;;10.00;99.90;;;;;;3059927;19;20011;-77
2022/09/25 01:55:13;;;;;;;6.95;1.98;;;10.00;99.90;;;;;;3060339;19;20030;-77
2022/09/25 01:56:25;;;;;;;5.32;1.50;;;9.80;99.90;;;;;;3059877;19;20015;-76
2022/09/25 01:57:34;;;;;;;4.60;1.40;;;9.80;99.90;;;;;;3061534;19;20013;-76
2022/09/25 01:58:43;;;;;;;8.95;2.10;;;9.70;99.90;;;;;;3059893;19;20007;-77
2022/09/25 01:59:53;;;;;;;6.10;1.70;;;9.80;99.90;;;;;;3059950;19;20018;-77
2022/09/25 02:01:00;;;;;;;10.13;1.90;;;9.60;99.90;;;;;;3059837;19;20014;-76
2022/09/25 02:02:05;;;;;;;6.22;1.73;;;9.80;99.90;;;;;;3058360;19;20003;-77
2022/09/25 02:03:14;;;;;;;6.05;1.40;;;9.70;99.90;;;;;;3060253;19;19999;-76
2022/09/25 02:04:20;;;;;;;7.40;1.98;;;9.90;99.90;;;;;;3059862;19;20010;-77
2022/09/25 02:05:29;;;;;;;6.10;1.70;;;9.40;99.90;;;;;;3060359;19;20014;-78
2022/09/25 02:06:33;;;;;;;4.93;1.40;;;9.70;99.90;;;;;;3059694;19;20367;-77
2022/09/25 02:07:42;;;;;;;7.38;1.63;;;9.60;99.90;;;;;;3059915;19;19999;-77
2022/09/25 02:08:48;;;;;;;5.55;1.70;;;9.60;99.90;;;;;;3060381;19;20014;-77
2022/09/25 02:09:54;;;;;;;3.88;1.33;;;9.70;99.90;;;;;;3059798;19;19999;-78
2022/09/25 02:10:59;;;;;;;9.00;2.00;;;8.20;99.90;;;;;;3061300;19;20021;-77
2022/09/25 02:12:08;;;;;;;6.40;1.77;;;9.40;99.90;;;;;;3059203;19;20414;-76
2022/09/25 02:13:13;;;;;;;6.40;1.80;;;9.60;99.90;;;;;;3058966;19;20023;-82
2022/09/25 02:14:22;;;;;;;9.95;1.70;;;9.80;99.90;;;;;;3057723;19;20018;-77
2022/09/25 02:15:30;;;;;;;7.43;1.75;;;9.60;99.90;;;;;;3059700;19;20381;-76
2022/09/25 02:16:42;;;;;;;10.77;2.20;;;9.50;99.90;;;;;;3057726;19;20018;-77
2022/09/25 02:20:33;;;;;;;4.95;1.60;;;9.50;99.90;;;;;;3059625;19;20013;-77
2022/09/25 02:21:45;;;;;;;5.88;1.73;;;9.50;99.90;;;;;;3059392;19;20018;-77
2022/09/25 02:22:50;;;;;;;6.72;1.92;;;9.30;99.90;;;;;;3060253;19;20021;-77
2022/09/25 02:23:59;;;;;;;7.80;1.77;;;9.50;99.90;;;;;;3059310;19;20085;-77
2022/09/25 02:25:10;;;;;;;6.28;1.58;;;9.70;99.90;;;;;;3058643;19;20039;-76
2022/09/25 02:26:19;;;;;;;6.78;1.70;;;9.40;99.90;;;;;;3061006;19;20043;-76
2022/09/25 02:27:21;;;;;;;5.82;1.85;;;9.50;99.90;;;;;;3055775;19;21104;-77
2022/09/25 02:28:25;;;;;;;5.72;2.10;;;9.40;99.90;;;;;;3059984;19;20025;-76
2022/09/25 02:29:27;;;;;;;6.35;1.65;;;;;;;;;;3059044;19;20043;-77
2022/09/25 02:30:33;;;;;;;7.40;1.80;;;9.30;99.90;;;;;;3061252;19;20526;-77
2022/09/25 02:31:39;;;;;;;5.15;1.60;;;9.10;99.90;;;;;;3060467;19;20581;-76
2022/09/25 02:32:43;;;;;;;6.25;1.60;;;9.30;99.90;;;;;;3059209;19;20010;-77
2022/09/25 02:33:44;;;;;;;6.43;1.52;;;9.50;99.90;;;;;;3059914;19;20328;-76
2022/09/25 02:34:48;;;;;;;5.00;1.77;;;9.10;99.90;;;;;;3058324;19;20475;-77
2022/09/25 02:35:50;;;;;;;7.60;1.52;;;9.50;99.90;;;;;;3058993;19;20014;-76
2022/09/25 02:36:54;;;;;;;5.72;1.60;;;9.30;99.90;;;;;;3059096;19;20014;-77
2022/09/25 02:37:56;;;;;;;5.85;1.70;;;9.30;99.90;;;;;;3059229;19;20047;-76
2022/09/25 02:39:00;;;;;;;6.63;1.70;;;9.30;99.90;;;;;;3060866;19;20007;-77
2022/09/25 02:40:03;;;;;;;5.30;1.77;;;9.30;99.90;;;;;;3059179;19;20077;-76
2022/09/25 02:41:20;;;;;;;6.07;1.67;;;9.50;99.90;;;;;;3059375;19;20015;-76
2022/09/25 02:42:37;;;;;;;8.50;1.85;;;9.30;99.90;;;;;;3059547;19;20035;-75
2022/09/25 02:43:49;;;;;;;8.57;1.60;;;9.70;99.90;;;;;;3059058;19;20022;-77
2022/09/25 02:45:06;;;;;;;6.45;1.70;;;9.20;99.90;;;;;;3059511;19;20017;-77
2022/09/25 02:46:15;;;;;;;5.90;1.65;;;9.30;99.90;;;;;;3059714;19;20096;-76
2022/09/25 02:47:31;;;;;;;5.63;1.58;;;9.50;99.90;;;;;;3057276;19;20016;-77
2022/09/25 02:48:40;;;;;;;5.70;1.70;;;9.20;99.90;;;;;;3058493;19;20015;-77
2022/09/25 02:49:52;;;;;;;5.47;1.48;;;9.20;99.90;;;;;;3057829;19;20082;-77
2022/09/25 02:51:02;;;;;;;5.15;1.55;;;9.40;99.90;;;;;;3059881;19;20014;-77
2022/09/25 02:52:11;;;;;;;6.97;1.60;;;9.20;99.90;;;;;;3059274;19;20031;-76
2022/09/25 02:53:17;;;;;;;6.05;1.50;;;9.20;99.90;;;;;;3059275;19;20014;-77
2022/09/25 02:54:26;;;;;;;6.53;1.80;;;9.50;99.90;;;;;;3058849;19;20011;-77
2022/09/25 02:55:37;;;;;;;9.32;1.85;;;9.30;99.90;;;;;;3059704;19;20014;-76
2022/09/25 02:56:48;;;;;;;5.93;1.48;;;9.10;99.90;;;;;;3057639;19;20011;-77
2022/09/25 02:57:55;;;;;;;5.10;1.67;;;9.20;99.90;;;;;;3059074;19;20013;-77
2022/09/25 02:59:05;;;;;;;4.45;1.60;;;9.10;99.90;;;;;;3057041;19;20123;-77
2022/09/25 03:00:08;;;;;;;7.05;1.60;;;9.10;99.90;;;;;;3058816;19;20025;-76
2022/09/25 03:01:18;;;;;;;4.90;1.63;;;9.10;99.90;;;;;;3059198;19;20015;-76
2022/09/25 03:02:20;;;;;;;7.80;2.17;;;9.20;99.90;;;;;;3058855;19;20369;-77
2022/09/25 03:03:28;;;;;;;5.35;1.60;;;9.20;99.90;;;;;;3059842;19;20014;-77
2022/09/25 03:04:34;;;;;;;6.57;1.50;;;9.10;99.90;;;;;;3058668;19;20483;-76
2022/09/25 03:05:39;;;;;;;5.22;1.48;;;9.10;99.90;;;;;;3058300;19;20516;-76
2022/09/25 03:06:41;;;;;;;5.82;1.52;;;8.90;99.90;;;;;;3058955;19;20030;-76
2022/09/25 03:09:03;;;;;;;6.05;1.52;;;9.00;99.90;;;;;;3057204;19;20022;-76
2022/09/25 03:10:07;;;;;;;4.88;1.60;;;9.10;99.90;;;;;;3058061;19;20018;-77
2022/09/25 03:11:14;;;;;;;4.35;1.60;;;9.20;99.90;;;;;;3058864;19;20015;-76
2022/09/25 03:12:16;;;;;;;6.22;2.00;;;9.10;99.90;;;;;;3058649;19;20011;-76
2022/09/25 03:13:25;;;;;;;4.68;1.30;;;8.90;99.90;;;;;;3057689;19;20010;-77
2022/09/25 03:14:27;;;;;;;6.35;1.60;;;;;;;;;;3057318;19;20007;-76
2022/09/25 03:15:30;;;;;;;;;;;9.30;99.90;;;;;;3059202;19;20014;-76
2022/09/25 03:16:40;;;;;;;6.30;1.58;;;9.20;99.90;;;;;;3058678;19;19918;-76
2022/09/25 03:17:45;;;;;;;9.13;1.85;;;9.20;99.90;;;;;;3059396;19;20039;-77
2022/09/25 03:18:47;;;;;;;4.72;1.40;;;9.10;99.90;;;;;;3059037;19;20018;-77
2022/09/25 03:19:50;;;;;;;6.90;1.92;;;9.10;99.90;;;;;;3059233;19;20335;-77
2022/09/25 03:20:52;;;;;;;4.05;1.60;;;9.20;99.90;;;;;;3060193;19;20092;-76
2022/09/25 03:21:56;;;;;;;5.72;1.70;;;;;;;;;;3057792;19;20002;-77
2022/09/25 03:22:57;;;;;;;5.53;1.60;;;9.00;99.90;;;;;;3058916;19;20010;-77
2022/09/25 03:24:01;;;;;;;8.00;2.28;;;9.10;99.90;;;;;;3058682;19;20399;-76
2022/09/25 03:25:04;;;;;;;9.82;1.52;;;9.20;99.90;;;;;;3058849;19;20014;-76
2022/09/25 03:26:09;;;;;;;4.68;1.33;;;9.20;99.90;;;;;;3056475;19;20047;-77
2022/09/25 03:27:10;;;;;;;4.88;1.65;;;9.10;99.90;;;;;;3058029;19;20011;-76
2022/09/25 03:28:14;;;;;;;5.55;1.52;;;9.10;99.90;;;;;;3058248;19;20014;-76
2022/09/25 03:29:16;;;;;;;7.18;1.70;;;8.90;99.90;;;;;;3058719;19;20018;-77
2022/09/25 03:30:23;;;;;;;5.28;1.77;;;9.00;99.90;;;;;;3059591;19;20026;-76
2022/09/25 03:31:24;;;;;;;6.18;1.60;;;;;;;;;;3058796;19;20081;-76
2022/09/25 03:32:31;;;;;;;8.43;1.70;;;9.00;99.90;;;;;;3058189;19;20022;-77
2022/09/25 03:33:35;;;;;;;5.28;1.60;;;9.40;99.90;;;;;;3058166;19;20515;-77
2022/09/25 03:34:39;;;;;;;3.80;1.40;;;9.00;99.90;;;;;;3056337;19;20021;-76
2022/09/25 03:35:40;;;;;;;5.88;1.52;;;9.30;99.90;;;;;;3055935;19;20491;-76
2022/09/25 03:36:46;;;;;;;8.57;2.03;;;9.30;99.90;;;;;;3056407;19;20022;-77
2022/09/25 03:37:47;;;;;;;8.57;1.75;;;9.30;99.90;;;;;;3055583;19;20022;-76
2022/09/25 03:38:56;;;;;;;7.03;1.83;;;9.30;99.90;;;;;;3057562;19;20364;-77
2022/09/25 03:39:58;;;;;;;6.82;1.67;;;9.30;99.90;;;;;;3057988;19;20006;-77
2022/09/25 03:41:02;;;;;;;6.95;1.50;;;9.20;99.90;;;;;;3058481;19;20011;-77
2022/09/25 03:42:04;;;;;;;7.35;1.83;;;8.80;99.90;;;;;;3058877;19;20009;-76
2022/09/25 03:43:08;;;;;;;4.60;2.00;;;8.90;99.90;;;;;;3057408;19;20018;-76
2022/09/25 03:44:09;;;;;;;4.85;1.42;;;9.20;99.90;;;;;;3058187;19;20018;-76
2022/09/25 03:45:13;;;;;;;5.95;1.77;;;9.20;99.90;;;;;;3058598;19;20084;-76
2022/09/25 03:46:15;;;;;;;4.97;1.60;;;;;;;;;;3056728;19;20495;-77
2022/09/25 03:47:19;;;;;;;5.22;1.60;;;8.90;99.90;;;;;;3057932;19;20074;-76
2022/09/25 03:48:23;;;;;;;6.72;1.60;;;9.20;99.90;;;;;;3057664;19;20018;-77
2022/09/25 03:49:26;;;;;;;6.13;1.95;;;9.10;99.90;;;;;;3058109;19;20006;-77
2022/09/25 03:50:28;;;;;;;5.60;1.75;;;9.40;99.90;;;;;;3057726;19;20029;-76
2022/09/25 03:51:35;;;;;;;7.18;2.05;;;9.20;99.90;;;;;;3058181;19;20355;-75
2022/09/25 03:52:36;;;;;;;5.75;2.10;;;8.90;99.90;;;;;;3059676;19;20023;-76
2022/09/25 03:53:41;;;;;;;7.53;1.75;;;8.90;99.90;;;;;;3058541;19;20007;-76
2022/09/25 03:54:43;;;;;;;7.05;1.90;;;9.20;99.90;;;;;;3058261;19;20023;-75
2022/09/25 03:55:48;;;;;;;10.38;2.00;;;9.40;99.90;;;;;;3058694;19;20022;-77
2022/09/25 03:56:50;;;;;;;8.40;1.77;;;9.00;99.90;;;;;;3056755;19;20087;-75
2022/09/25 03:57:54;;;;;;;5.70;1.70;;;9.00;99.90;;;;;;3057975;19;20015;-76
2022/09/25 03:58:55;;;;;;;6.93;1.67;;;9.00;99.90;;;;;;3058950;19;20599;-75
2022/09/25 04:00:02;;;;;;;;;;;9.60;99.90;;;;;;3058460;19;20018;-76
2022/09/25 04:01:04;;;;;;;4.60;1.65;;;8.90;99.90;;;;;;3058070;19;19926;-76
2022/09/25 04:02:09;;;;;;;6.63;1.92;;;8.90;99.90;;;;;;3058148;19;20018;-76
2022/09/25 04:03:10;;;;;;;7.18;1.95;;;8.90;99.90;;;;;;3058377;19;20015;-76
2022/09/25 04:04:17;;;;;;;6.53;1.65;;;8.90;99.90;;;;;;3057685;19;20007;-76
2022/09/25 04:05:20;;;;;;;8.43;1.95;;;9.00;99.90;;;;;;3058841;19;20043;-77
2022/09/25 04:06:25;;;;;;;9.02;1.88;;;9.00;99.90;;;;;;3057744;19;20483;-76
2022/09/25 04:07:27;;;;;;;8.40;2.00;;;9.00;99.90;;;;;;3058035;19;20039;-76
2022/09/25 04:08:30;;;;;;;5.07;1.83;;;9.10;99.90;;;;;;3058302;19;20012;-76
2022/09/25 04:09:32;;;;;;;5.63;1.60;;;9.00;99.90;;;;;;3057986;19;20111;-74
2022/09/25 04:10:37;;;;;;;9.10;1.92;;;8.70;99.90;;;;;;3059759;19;20498;-76
2022/09/25 04:11:39;;;;;;;6.72;1.70;;;8.90;99.90;;;;;;3058129;19;20352;-76
2022/09/25 04:12:43;;;;;;;6.45;2.10;;;9.00;99.90;;;;;;3058345;19;20018;-77
2022/09/25 04:13:44;;;;;;;6.63;1.65;;;9.10;99.90;;;;;;3057956;19;20373;-76
2022/09/25 04:14:48;;;;;;;8.38;2.08;;;;;;;;;;3058059;19;20014;-76
2022/09/25 04:15:50;;;;;;;5.15;1.90;;;9.30;99.90;;;;;;3057952;19;20031;-76
2022/09/25 04:16:54;;;;;;;;;;;9.20;99.90;;;;;;3058740;19;20025;-76
2022/09/25 04:17:55;;;;;;;4.85;1.65;;;9.30;99.90;;;;;;3057959;19;19919;-76
2022/09/25 04:18:59;;;;;;;6.60;1.77;;;8.80;99.90;;;;;;3057502;19;20577;-76
2022/09/25 04:20:03;;;;;;;5.68;2.30;;;9.20;99.90;;;;;;3057356;19;20015;-76
2022/09/25 04:21:10;;;;;;;7.38;1.83;;;9.20;99.90;;;;;;3058044;19;20007;-76
2022/09/25 04:22:11;;;;;;;7.07;1.70;;;9.00;99.90;;;;;;3057899;19;20042;-76
2022/09/25 04:23:15;;;;;;;5.72;1.70;;;8.70;99.90;;;;;;3057976;19;20015;-75
2022/09/25 04:25:35;;;;;;;9.43;2.53;;;9.10;99.90;;;;;;3060796;19;20014;-76
2022/09/25 04:26:37;;;;;;;6.05;1.80;;;;;;;;;;3061148;19;20010;-76
2022/09/25 04:27:42;;;;;;;7.40;1.90;;;8.80;99.90;;;;;;3061456;19;20029;-76
2022/09/25 04:28:44;;;;;;;5.65;1.90;;;8.80;99.90;;;;;;3060511;19;20014;-76
2022/09/25 04:29:48;;;;;;;3.67;1.58;;;9.10;99.90;;;;;;3061495;19;20024;-76
2022/09/25 04:30:50;;;;;;;6.72;1.70;;;8.70;99.90;;;;;;3060890;19;20019;-76
2022/09/25 04:34:27;;;;;;;5.88;1.92;;;8.40;99.90;;;;;;3060566;19;20023;-76
2022/09/25 04:35:31;;;;;;;7.53;1.60;;;8.40;99.90;;;;;;3061195;19;20015;-76
2022/09/25 04:36:35;;;;;;;6.18;1.80;;;8.90;99.90;;;;;;3060117;19;20134;-76
2022/09/25 04:37:36;;;;;;;5.22;1.77;;;8.70;99.90;;;;;;3060403;19;20026;-76
2022/09/25 04:38:40;;;;;;;8.32;2.20;;;8.50;99.90;;;;;;3060625;19;20043;-76
2022/09/25 04:39:41;;;;;;;5.95;1.85;;;8.70;99.90;;;;;;3060859;19;20014;-76
2022/09/25 04:40:46;;;;;;;4.28;1.90;;;;;;;;;;3060898;19;20043;-76
2022/09/25 04:41:48;;;;;;;9.00;2.10;;;8.60;99.90;;;;;;3061017;19;20014;-76
2022/09/25 04:42:57;;;;;;;9.25;2.38;;;8.60;99.90;;;;;;3061164;19;20019;-76
2022/09/25 04:43:58;;;;;;;4.63;2.15;;;8.70;99.90;;;;;;3060095;19;20022;-76
2022/09/25 04:45:02;;;;;;;7.75;2.00;;;;;;;;;;3059327;19;20064;-77
2022/09/25 04:46:08;;;;;;;8.07;2.40;;;8.50;99.90;;;;;;3060796;19;20018;-76
2022/09/25 04:47:09;;;;;;;7.22;2.03;;;8.70;99.90;;;;;;3060055;19;20450;-76
2022/09/25 04:48:13;;;;;;;10.65;2.17;;;8.80;99.90;;;;;;3060534;19;20006;-75
2022/09/25 04:49:14;;;;;;;6.80;2.00;;;8.90;99.90;;;;;;3060224;19;20006;-76
2022/09/25 04:50:18;;;;;;;7.72;2.13;;;8.60;99.90;;;;;;3059758;19;20082;-75
2022/09/25 04:51:22;;;;;;;6.60;2.10;;;8.70;99.90;;;;;;3062369;19;20010;-76
2022/09/25 04:52:27;;;;;;;7.53;2.22;;;8.60;99.90;;;;;;3060026;19;20366;-76
2022/09/25 04:53:29;;;;;;;11.40;2.17;;;8.80;99.90;;;;;;3061618;19;20386;-76
2022/09/25 04:54:33;;;;;;;8.85;2.55;;;8.80;99.90;;;;;;3059739;19;20006;-76
2022/09/25 04:55:37;;;;;;;4.15;1.95;;;8.70;99.90;;;;;;3060600;19;20022;-76
2022/09/25 04:56:41;;;;;;;8.00;2.03;;;8.60;99.90;;;;;;3059665;19;20011;-75
2022/09/25 04:57:42;;;;;;;5.35;2.08;;;8.60;99.90;;;;;;3060381;19;20010;-75
2022/09/25 04:58:48;;;;;;;4.88;2.00;;;8.80;99.90;;;;;;3060965;19;20568;-76
2022/09/25 04:59:49;;;;;;;6.00;2.00;;;8.60;99.90;;;;;;3060434;19;20682;-77
2022/09/25 05:00:53;;;;;;;5.38;2.10;;;8.40;99.90;;;;;;3061433;19;20031;-76
2022/09/25 05:01:55;;;;;;;8.07;2.03;;;8.80;99.90;;;;;;3060398;19;20007;-75
2022/09/25 05:02:59;;;;;;;8.95;2.20;;;8.70;99.90;;;;;;3060931;19;20484;-76
2022/09/25 05:04:00;;;;;;;7.32;2.22;;;8.50;99.90;;;;;;3060280;19;20018;-75
2022/09/25 05:05:05;;;;;;;6.60;2.38;;;8.60;99.90;;;;;;3059412;19;20041;-76
2022/09/25 05:06:07;;;;;;;5.85;1.95;;;8.70;99.90;;;;;;3059549;19;20018;-76
2022/09/25 05:07:13;;;;;;;9.75;2.33;;;8.80;99.90;;;;;;3060402;19;20082;-77
2022/09/25 05:08:14;;;;;;;5.28;1.70;;;8.70;99.90;;;;;;3059509;19;20014;-76
2022/09/25 05:09:18;;;;;;;7.10;2.22;;;8.60;99.90;;;;;;3062290;19;20025;-76
2022/09/25 05:10:20;;;;;;;5.57;2.00;;;8.60;99.90;;;;;;3058901;19;20021;-76
2022/09/25 05:11:24;;;;;;;5.55;1.85;;;8.80;99.90;;;;;;3060620;19;20011;-76
2022/09/25 05:12:25;;;;;;;5.60;1.98;;;8.40;99.90;;;;;;3059652;19;20019;-76
2022/09/25 05:13:29;;;;;;;5.47;1.85;;;8.70;99.90;;;;;;3059892;19;20044;-76
2022/09/25 05:14:30;;;;;;;8.48;2.33;;;8.80;99.90;;;;;;3059794;19;20018;-77
2022/09/25 05:15:35;;;;;;;5.15;1.90;;;8.60;99.90;;;;;;3059382;19;20014;-76
2022/09/25 05:16:36;;;;;;;4.55;1.80;;;8.50;99.90;;;;;;3061620;19;20353;-76
2022/09/25 05:17:40;;;;;;;4.55;1.83;;;8.50;99.90;;;;;;3059742;19;20495;-75
2022/09/25 05:18:42;;;;;;;3.22;1.90;;;8.60;99.90;;;;;;3059877;19;20015;-76
2022/09/25 05:19:45;;;;;;;5.88;1.88;;;8.60;99.90;;;;;;3059696;19;20023;-75
2022/09/25 05:20:47;;;;;;;7.28;2.20;;;8.60;99.90;;;;;;3059881;19;20019;-76
2022/09/25 05:21:51;;;;;;;;;;;9.20;99.90;;;;;;3061002;19;20027;-75
2022/09/25 05:22:56;;;;;;;7.15;2.00;;;8.70;99.90;;;;;;3060570;19;20424;-76
2022/09/25 05:24:00;;;;;;;7.22;2.13;;;8.50;99.90;;;;;;3060747;19;20006;-76
2022/09/25 05:25:01;;;;;;;6.10;2.00;;;8.60;99.90;;;;;;3059313;19;20542;-75
2022/09/25 05:26:05;;;;;;;8.80;2.20;;;8.40;99.90;;;;;;3062455;19;20075;-76
2022/09/25 05:27:07;;;;;;;10.25;2.28;;;8.50;99.90;;;;;;3060322;19;20027;-76
2022/09/25 05:28:12;;;;;;;7.35;2.15;;;8.60;99.90;;;;;;3059854;19;20475;-75
2022/09/25 05:29:13;;;;;;;5.68;2.00;;;8.70;99.90;;;;;;3062104;19;20018;-76
2022/09/25 05:30:17;;;;;;;7.95;1.85;;;8.50;99.90;;;;;;3061129;19;20018;-76
2022/09/25 05:31:21;;;;;;;9.02;2.08;;;8.50;99.90;;;;;;3063569;19;20029;-76
2022/09/25 05:32:23;;;;;;;6.10;1.90;;;8.80;99.90;;;;;;3062140;19;20010;-75
2022/09/25 05:33:27;;;;;;;8.00;1.83;;;8.90;99.90;;;;;;3063292;19;20022;-76
2022/09/25 05:34:29;;;;;;;7.28;1.85;;;8.50;99.90;;;;;;3059876;19;20483;-76
2022/09/25 05:35:35;;;;;;;5.05;1.90;;;8.50;99.90;;;;;;3060061;19;20022;-76
2022/09/25 05:36:36;;;;;;;7.45;2.03;;;8.60;99.90;;;;;;3060340;19;20014;-76
2022/09/25 05:37:43;;;;;;;6.70;2.10;;;8.60;99.90;;;;;;3058046;19;20476;-79
2022/09/25 05:38:47;;;;;;;9.35;2.28;;;8.50;99.90;;;;;;3059846;19;20498;-79
2022/09/25 05:39:51;;;;;;;6.90;1.80;;;8.70;99.90;;;;;;3060077;19;20110;-78
2022/09/25 05:40:52;;;;;;;5.82;2.05;;;8.60;99.90;;;;;;3058318;19;20025;-79
2022/09/25 05:41:56;;;;;;;9.50;2.05;;;8.60;99.90;;;;;;3060273;19;20022;-78
2022/09/25 05:42:58;;;;;;;5.55;2.10;;;8.80;99.90;;;;;;3059665;19;20050;-78
2022/09/25 05:44:08;;;;;;;8.52;2.00;;;8.80;99.90;;;;;;3060192;19;20078;-77
2022/09/25 05:45:10;;;;;;;6.68;2.08;;;8.60;99.90;;;;;;3059695;19;20101;-79
2022/09/25 05:46:15;;;;;;;8.65;2.20;;;8.70;99.90;;;;;;3060184;19;20021;-78
2022/09/25 05:47:17;;;;;;;5.63;2.17;;;;;;;;;;3058651;19;20025;-78
2022/09/25 05:48:21;;;;;;;8.02;2.05;;;8.30;99.90;;;;;;3059616;19;20032;-78
2022/09/25 05:49:22;;;;;;;5.00;1.80;;;8.60;99.90;;;;;;3058382;19;20022;-77
2022/09/25 05:50:26;;;;;;;8.05;2.35;;;8.80;99.90;;;;;;3058944;19;20014;-79
2022/09/25 05:51:30;;;;;;;8.50;2.33;;;8.80;99.90;;;;;;3061001;19;20066;-77
2022/09/25 05:52:31;;;;;;;4.00;2.38;;;8.70;99.90;;;;;;3060595;19;20010;-78
2022/09/25 05:53:36;;;;;;;8.27;2.33;;;8.40;99.90;;;;;;3059731;19;20022;-77
2022/09/25 05:54:40;;;;;;;7.22;2.28;;;8.60;99.90;;;;;;3060427;19;20007;-76